Time;durP1;ratioP1;P1;durP2;ratioP2;P2;SDS_P1;SDS_P2;PMS_P1;PMS_P2;Temp;Humidity;BMP_temperature;BMP_pressure;BME280_temperature;BME280_humidity;BME280_pressure;Samples;Min_cycle;Max_cycle;Signal;HPM_P1;HPM_P2
2023/01/29 00:00:44;;;;;;;4.23;3.03;;;;;;;;;;765879;183;919592;-66
2023/01/29 00:03:10;;;;;;;4.50;3.20;;;;;;;;;;764078;180;920905;-66
2023/01/29 00:05:36;;;;;;;6.30;2.53;;;;;;;;;;759639;182;915351;-66
2023/01/29 00:08:02;;;;;;;7.83;5.20;;;;;;;;;;754042;182;1120760;-66
2023/01/29 00:10:28;;;;;;;5.87;3.80;;;;;;;;;;769438;181;918405;-66
2023/01/29 00:12:54;;;;;;;5.03;3.40;;;;;;;;;;773710;180;919405;-66
2023/01/29 00:15:20;;;;;;;7.07;4.80;;;;;;;;;;769948;181;918702;-66
2023/01/29 00:17:45;;;;;;;7.13;4.20;;;;;;;;;;773845;180;626012;-66
2023/01/29 00:20:12;;;;;;;5.87;4.47;;;;;;;;;;755651;179;919620;-67
2023/01/29 00:22:37;;;;;;;5.20;4.13;;;;;;;;;;755875;183;919995;-66
2023/01/29 00:25:03;;;;;;;6.50;2.17;;;;;;;;;;763782;181;917885;-66
2023/01/29 00:27:29;;;;;;;6.80;3.53;;;;;;;;;;758030;181;914190;-67
2023/01/29 00:32:27;;;;;;;5.80;3.90;;;;;;;;;;773630;180;930845;-66
2023/01/29 00:34:52;;;;;;;5.93;3.30;;;;;;;;;;769822;183;918719;-66
2023/01/29 00:37:18;;;;;;;6.27;4.47;;;;;;;;;;770792;179;918333;-66
2023/01/29 00:39:44;;;;;;;7.00;4.70;;;;;;;;;;767107;179;919131;-66
2023/01/29 00:49:45;;;;;;;6.70;4.10;;;;;;;;;;761303;181;921830;-67
2023/01/29 00:54:43;;;;;;;8.70;4.87;;;;;;;;;;767421;183;919369;-68
2023/01/29 00:57:08;;;;;;;12.98;5.75;;;;;;;;;;763735;183;918316;-67
2023/01/29 00:59:34;;;;;;;6.23;4.03;;;;;;;;;;763793;183;920584;-66
2023/01/29 01:04:44;;;;;;;9.33;5.93;;;;;;;;;;761334;182;921536;-66
2023/01/29 01:07:09;;;;;;;9.23;6.10;;;;;;;;;;758481;182;918518;-66
2023/01/29 01:12:07;;;;;;;7.63;5.67;;;;;;;;;;763450;183;913288;-66
2023/01/29 01:14:35;;;;;;;9.20;5.27;;;;;;;;;;773675;180;935210;-66
2023/01/29 01:16:59;;;;;;;10.20;5.85;;;;;;;;;;773007;180;919099;-66
2023/01/29 01:19:24;;;;;;;9.17;6.67;;;;;;;;;;743516;183;912895;-67
2023/01/29 01:21:50;;;;;;;10.07;6.80;;;;;;;;;;746437;186;919877;-66
2023/01/29 01:24:16;;;;;;;12.80;7.20;;;;;;;;;;742483;183;920218;-66
2023/01/29 01:26:42;;;;;;;8.23;5.67;;;;;;;;;;742331;186;919693;-66
2023/01/29 01:29:08;;;;;;;9.65;6.10;;;;;;;;;;742459;188;919681;-66
2023/01/29 01:31:34;;;;;;;9.33;5.60;;;;;;;;;;755831;185;919524;-66
2023/01/29 01:33:59;;;;;;;9.33;5.07;;;;;;;;;;761143;180;921673;-67
2023/01/29 01:36:25;;;;;;;7.67;4.70;;;;;;;;;;762023;181;918914;-67
2023/01/29 01:38:51;;;;;;;9.63;6.00;;;;;;;;;;777073;179;918655;-66
2023/01/29 01:41:17;;;;;;;9.10;6.10;;;;;;;;;;753989;185;919454;-66
2023/01/29 01:43:47;;;;;;;9.93;6.50;;;;;;;;;;757095;184;619037;-67
2023/01/29 01:46:12;;;;;;;9.63;6.33;;;;;;;;;;750123;185;617217;-66
2023/01/29 01:48:38;;;;;;;10.05;6.30;;;;;;;;;;742987;184;919624;-66
2023/01/29 01:51:05;;;;;;;11.37;8.00;;;;;;;;;;751366;184;918973;-66
2023/01/29 01:53:33;;;;;;;11.73;7.70;;;;;;;;;;742260;185;918860;-66
2023/01/29 01:55:57;;;;;;;31.33;16.60;;;;;;;;;;762975;185;919377;-66
2023/01/29 01:58:24;;;;;;;11.27;7.60;;;;;;;;;;763998;181;918213;-66
2023/01/29 02:00:49;;;;;;;12.80;8.83;;;;;;;;;;763991;180;638669;-68
2023/01/29 02:10:50;;;;;;;14.23;8.37;;;;;;;;;;772056;180;640843;-66
2023/01/29 02:13:17;;;;;;;11.87;8.33;;;;;;;;;;773304;180;918410;-65
2023/01/29 02:15:45;;;;;;;9.43;6.77;;;;;;;;;;755981;180;918897;-66
2023/01/29 02:18:08;;;;;;;12.50;7.23;;;;;;;;;;762331;180;920348;-66
2023/01/29 02:20:34;;;;;;;14.80;7.43;;;;;;;;;;753943;182;920095;-66
2023/01/29 02:23:03;;;;;;;12.30;9.07;;;;;;;;;;761332;183;919085;-66
2023/01/29 02:25:44;;;;;;;12.27;7.78;;;;;;;;;;744147;185;922443;-66
2023/01/29 02:28:10;;;;;;;16.63;10.00;;;;;;;;;;740874;188;918804;-66
2023/01/29 02:30:37;;;;;;;14.77;8.27;;;;;;;;;;752795;184;920989;-66
2023/01/29 02:33:06;;;;;;;13.90;7.87;;;;;;;;;;754861;183;918963;-67
2023/01/29 02:35:31;;;;;;;10.87;6.70;;;;;;;;;;740792;183;916665;-66
2023/01/29 02:37:57;;;;;;;18.17;8.10;;;;;;;;;;740829;187;915906;-66
2023/01/29 02:40:24;;;;;;;11.93;8.38;;;;;;;;;;741403;185;916521;-66
2023/01/29 02:42:50;;;;;;;12.50;9.23;;;;;;;;;;746859;186;918474;-66
2023/01/29 02:45:17;;;;;;;13.63;8.80;;;;;;;;;;743905;183;919436;-66
2023/01/29 02:47:44;;;;;;;10.00;7.97;;;;;;;;;;757773;181;915246;-66
2023/01/29 02:50:12;;;;;;;11.67;7.77;;;;;;;;;;766529;182;919296;-66
2023/01/29 02:52:38;;;;;;;11.80;9.50;;;;;;;;;;762097;181;919083;-67
2023/01/29 02:55:09;;;;;;;9.50;6.70;;;;;;;;;;764089;180;949791;-66
2023/01/29 02:57:36;;;;;;;10.53;7.10;;;;;;;;;;759610;180;919293;-66
2023/01/29 03:00:01;;;;;;;12.00;7.60;;;;;;;;;;777854;181;918665;-67
2023/01/29 03:02:28;;;;;;;13.40;7.47;;;;;;;;;;756316;181;919483;-66
2023/01/29 03:04:54;;;;;;;15.00;10.43;;;;;;;;;;759233;181;920831;-66
2023/01/29 03:09:54;;;;;;;12.80;8.10;;;;;;;;;;773477;180;919039;-66
2023/01/29 03:12:32;;;;;;;11.82;7.40;;;;;;;;;;777529;180;999331;-66
2023/01/29 03:17:18;;;;;;;10.30;8.67;;;;;;;;;;757358;185;921378;-66
2023/01/29 03:19:44;;;;;;;12.57;8.47;;;;;;;;;;763666;178;920684;-66
2023/01/29 03:22:09;;;;;;;11.30;8.95;;;;;;;;;;741056;183;921744;-66
2023/01/29 03:32:14;;;;;;;14.53;9.03;;;;;;;;;;769231;180;919490;-66
2023/01/29 03:34:42;;;;;;;13.00;8.60;;;;;;;;;;765971;180;919403;-66
2023/01/29 03:37:08;;;;;;;14.55;8.32;;;;;;;;;;770866;180;918388;-66
2023/01/29 03:39:33;;;;;;;13.70;9.30;;;;;;;;;;764200;181;920318;-66
2023/01/29 03:41:59;;;;;;;15.20;9.07;;;;;;;;;;767543;180;926304;-66
2023/01/29 03:44:31;;;;;;;14.43;9.20;;;;;;;;;;771031;179;919632;-66
2023/01/29 03:46:57;;;;;;;13.37;9.90;;;;;;;;;;759113;180;918088;-66
2023/01/29 03:49:23;;;;;;;15.13;9.33;;;;;;;;;;760891;182;922251;-66
2023/01/29 03:51:49;;;;;;;9.67;7.07;;;;;;;;;;758165;181;920491;-66
2023/01/29 03:54:18;;;;;;;11.35;8.40;;;;;;;;;;763183;181;920040;-67
2023/01/29 03:56:44;;;;;;;16.33;7.67;;;;;;;;;;770777;180;941809;-66
2023/01/29 03:59:26;;;;;;;11.67;8.10;;;;;;;;;;768307;178;964720;-65
2023/01/29 04:01:53;;;;;;;9.60;7.60;;;;;;;;;;767791;179;978596;-66
2023/01/29 04:04:22;;;;;;;10.00;7.73;;;;;;;;;;758737;180;1023663;-66
2023/01/29 04:06:48;;;;;;;8.67;5.07;;;;;;;;;;763842;181;1118399;-66
2023/01/29 04:09:14;;;;;;;13.60;7.87;;;;;;;;;;757268;181;920428;-65
2023/01/29 04:11:41;;;;;;;9.83;7.63;;;;;;;;;;764678;179;917580;-66
2023/01/29 04:14:07;;;;;;;14.63;9.57;;;;;;;;;;768037;180;945347;-67
2023/01/29 04:16:32;;;;;;;10.70;7.80;;;;;;;;;;753661;183;918974;-67
2023/01/29 04:18:58;;;;;;;15.40;8.53;;;;;;;;;;750913;184;919364;-66
2023/01/29 04:21:24;;;;;;;14.17;8.00;;;;;;;;;;758415;180;1018813;-66
2023/01/29 04:23:50;;;;;;;13.70;7.87;;;;;;;;;;767749;181;920902;-66
2023/01/29 04:26:21;;;;;;;11.47;8.27;;;;;;;;;;762669;179;920656;-66
2023/01/29 04:29:04;;;;;;;10.00;7.03;;;;;;;;;;763648;180;1020460;-67
2023/01/29 04:31:31;;;;;;;10.23;7.50;;;;;;;;;;758356;179;914922;-66
2023/01/29 04:34:00;;;;;;;14.20;8.00;;;;;;;;;;768300;180;920602;-66
2023/01/29 04:36:27;;;;;;;12.60;7.20;;;;;;;;;;768775;181;913564;-66
2023/01/29 04:38:56;;;;;;;11.63;7.60;;;;;;;;;;757702;185;917548;-67
2023/01/29 04:41:24;;;;;;;11.67;7.63;;;;;;;;;;752559;183;1011759;-66
2023/01/29 04:43:53;;;;;;;10.33;6.53;;;;;;;;;;769206;181;913345;-66
2023/01/29 04:46:19;;;;;;;11.57;7.30;;;;;;;;;;760515;181;913787;-66
2023/01/29 04:49:00;;;;;;;9.80;6.83;;;;;;;;;;759477;180;920003;-66
2023/01/29 04:51:32;;;;;;;12.03;8.93;;;;;;;;;;766199;181;916276;-65
2023/01/29 04:53:59;;;;;;;9.40;7.50;;;;;;;;;;761483;181;944533;-65
2023/01/29 04:56:34;;;;;;;14.43;8.60;;;;;;;;;;763340;180;919372;-66
2023/01/29 04:59:01;;;;;;;13.93;7.73;;;;;;;;;;760187;183;918769;-66
2023/01/29 05:01:28;;;;;;;12.47;8.93;;;;;;;;;;757559;182;912848;-65
2023/01/29 05:03:54;;;;;;;10.60;7.77;;;;;;;;;;764671;181;919424;-66
2023/01/29 05:06:18;;;;;;;11.40;9.00;;;;;;;;;;765254;181;911334;-67
2023/01/29 05:08:44;;;;;;;11.35;7.85;;;;;;;;;;765240;180;918692;-66
2023/01/29 05:11:10;;;;;;;10.93;7.70;;;;;;;;;;750727;183;922743;-66
2023/01/29 05:13:36;;;;;;;10.67;7.10;;;;;;;;;;754697;182;918960;-65
2023/01/29 05:16:02;;;;;;;14.50;8.17;;;;;;;;;;768252;181;919495;-66
2023/01/29 05:18:28;;;;;;;14.00;8.53;;;;;;;;;;751678;181;920545;-66
2023/01/29 05:20:53;;;;;;;12.13;7.57;;;;;;;;;;756021;183;919784;-65
2023/01/29 05:23:19;;;;;;;12.43;8.90;;;;;;;;;;763881;183;917981;-66
2023/01/29 05:25:45;;;;;;;13.20;7.00;;;;;;;;;;765830;183;919242;-66
2023/01/29 05:28:18;;;;;;;21.80;7.60;;;;;;;;;;750178;183;919357;-65
2023/01/29 05:30:44;;;;;;;11.88;7.30;;;;;;;;;;760135;183;1019304;-67
2023/01/29 05:33:12;;;;;;;9.80;6.73;;;;;;;;;;770466;181;919837;-65
2023/01/29 05:35:38;;;;;;;13.65;8.90;;;;;;;;;;764471;180;919420;-65
2023/01/29 05:38:04;;;;;;;12.50;9.63;;;;;;;;;;757645;181;919230;-66
2023/01/29 05:40:30;;;;;;;11.00;7.07;;;;;;;;;;765847;180;920760;-66
2023/01/29 05:42:56;;;;;;;11.63;7.20;;;;;;;;;;762765;181;925320;-66
2023/01/29 05:45:22;;;;;;;10.03;6.73;;;;;;;;;;757231;181;919037;-66
2023/01/29 05:47:47;;;;;;;8.50;6.40;;;;;;;;;;774016;180;917350;-65
2023/01/29 05:50:13;;;;;;;11.57;7.57;;;;;;;;;;766499;181;919494;-65
2023/01/29 05:52:39;;;;;;;10.47;6.80;;;;;;;;;;764504;180;919237;-66
2023/01/29 05:55:05;;;;;;;10.23;7.30;;;;;;;;;;750955;183;917797;-66
2023/01/29 05:57:31;;;;;;;13.65;7.25;;;;;;;;;;746167;183;916269;-66
2023/01/29 05:59:57;;;;;;;11.00;6.60;;;;;;;;;;754695;183;911529;-65
2023/01/29 06:02:23;;;;;;;10.23;6.53;;;;;;;;;;756143;180;945515;-66
2023/01/29 06:04:49;;;;;;;10.98;7.05;;;;;;;;;;769519;180;918241;-65
2023/01/29 06:07:15;;;;;;;11.47;6.93;;;;;;;;;;765052;180;919003;-66
2023/01/29 06:09:41;;;;;;;12.57;8.20;;;;;;;;;;759271;180;918832;-66
2023/01/29 06:12:06;;;;;;;8.40;6.57;;;;;;;;;;768914;181;919448;-66
2023/01/29 06:14:32;;;;;;;10.57;6.60;;;;;;;;;;763234;181;924914;-66
2023/01/29 06:16:58;;;;;;;8.43;6.47;;;;;;;;;;765408;180;919341;-65
2023/01/29 06:19:24;;;;;;;9.57;7.28;;;;;;;;;;767688;181;919382;-67
2023/01/29 06:21:50;;;;;;;10.30;5.70;;;;;;;;;;774638;176;919449;-66
2023/01/29 06:24:16;;;;;;;12.27;7.20;;;;;;;;;;767616;180;1016774;-65
2023/01/29 06:26:42;;;;;;;8.83;5.80;;;;;;;;;;770014;179;919769;-66
2023/01/29 06:29:08;;;;;;;11.70;6.70;;;;;;;;;;768383;183;917475;-66
2023/01/29 06:31:35;;;;;;;10.90;7.23;;;;;;;;;;761875;180;919102;-66
2023/01/29 06:34:00;;;;;;;10.13;7.93;;;;;;;;;;765370;180;918693;-66
2023/01/29 06:36:26;;;;;;;21.20;11.77;;;;;;;;;;765092;180;932354;-66
2023/01/29 06:38:52;;;;;;;24.60;13.10;;;;;;;;;;760880;181;940625;-66
2023/01/29 06:41:18;;;;;;;18.90;9.00;;;;;;;;;;762177;181;915169;-66
2023/01/29 06:43:44;;;;;;;15.33;8.50;;;;;;;;;;767173;181;921071;-66
2023/01/29 06:46:10;;;;;;;9.17;6.70;;;;;;;;;;767162;180;1200620;-66
2023/01/29 06:48:36;;;;;;;10.50;6.30;;;;;;;;;;754232;183;919024;-66
2023/01/29 06:51:02;;;;;;;9.50;6.57;;;;;;;;;;762439;181;915932;-66
2023/01/29 06:53:28;;;;;;;10.80;6.20;;;;;;;;;;766943;180;916277;-66
2023/01/29 06:55:54;;;;;;;9.88;6.75;;;;;;;;;;762712;181;919184;-66
2023/01/29 06:58:20;;;;;;;13.27;7.53;;;;;;;;;;763287;180;919172;-66
2023/01/29 07:00:46;;;;;;;12.70;8.73;;;;;;;;;;765712;181;919311;-66
2023/01/29 07:03:11;;;;;;;14.10;8.23;;;;;;;;;;762360;181;921491;-65
2023/01/29 07:05:37;;;;;;;9.70;7.23;;;;;;;;;;760517;180;948987;-66
2023/01/29 07:08:03;;;;;;;15.50;8.63;;;;;;;;;;768363;180;914768;-65
2023/01/29 07:10:29;;;;;;;11.80;8.67;;;;;;;;;;759190;181;935058;-66
2023/01/29 07:12:55;;;;;;;13.83;10.73;;;;;;;;;;762509;180;919568;-66
2023/01/29 07:15:21;;;;;;;10.80;7.23;;;;;;;;;;761245;180;918248;-66
2023/01/29 07:17:56;;;;;;;8.43;5.43;;;;;;;;;;765169;181;919388;-66
2023/01/29 07:20:21;;;;;;;6.18;4.45;;;;;;;;;;761668;180;919545;-66
2023/01/29 07:22:47;;;;;;;6.50;4.70;;;;;;;;;;766437;180;918976;-66
2023/01/29 07:25:13;;;;;;;5.80;4.43;;;;;;;;;;772758;180;919663;-66
2023/01/29 07:27:39;;;;;;;7.27;4.97;;;;;;;;;;755268;181;919768;-66
2023/01/29 07:30:05;;;;;;;5.07;3.40;;;;;;;;;;747090;183;919509;-66
2023/01/29 07:32:31;;;;;;;5.47;3.95;;;;;;;;;;750677;183;920243;-66
2023/01/29 07:34:57;;;;;;;6.37;4.30;;;;;;;;;;757760;181;889054;-66
2023/01/29 07:37:23;;;;;;;7.03;4.60;;;;;;;;;;761095;179;920493;-66
2023/01/29 07:39:49;;;;;;;10.07;5.30;;;;;;;;;;761296;180;919317;-66
2023/01/29 07:42:14;;;;;;;8.43;5.50;;;;;;;;;;763073;182;920932;-67
2023/01/29 07:44:40;;;;;;;7.17;4.70;;;;;;;;;;761964;180;914495;-66
2023/01/29 07:47:06;;;;;;;11.30;5.03;;;;;;;;;;759043;181;917982;-66
2023/01/29 07:49:32;;;;;;;11.67;8.90;;;;;;;;;;764603;180;916490;-66
2023/01/29 07:51:58;;;;;;;6.93;5.80;;;;;;;;;;762510;181;915593;-66
2023/01/29 07:54:24;;;;;;;6.03;3.80;;;;;;;;;;761812;180;1128509;-67
2023/01/29 07:56:50;;;;;;;6.45;4.80;;;;;;;;;;762107;181;919100;-66
2023/01/29 07:59:16;;;;;;;8.30;4.60;;;;;;;;;;765403;180;919725;-66
2023/01/29 08:01:42;;;;;;;6.73;4.13;;;;;;;;;;760848;180;918581;-66
2023/01/29 08:04:08;;;;;;;6.18;4.65;;;;;;;;;;764548;179;1016192;-71
2023/01/29 08:06:34;;;;;;;5.93;3.60;;;;;;;;;;779088;180;907128;-66
2023/01/29 08:09:00;;;;;;;7.90;5.80;;;;;;;;;;759514;183;1018729;-66
2023/01/29 08:11:26;;;;;;;7.80;4.20;;;;;;;;;;751982;183;1024885;-66
2023/01/29 08:13:51;;;;;;;61.45;31.77;;;;;;;;;;766711;181;914176;-66
2023/01/29 08:16:17;;;;;;;20.70;13.03;;;;;;;;;;759438;181;919867;-66
2023/01/29 08:18:46;;;;;;;8.50;5.80;;;;;;;;;;761327;180;918708;-66
2023/01/29 08:21:09;;;;;;;16.30;7.97;;;;;;;;;;770428;180;919445;-66
2023/01/29 08:23:35;;;;;;;44.87;22.63;;;;;;;;;;767946;180;919114;-66
2023/01/29 08:26:01;;;;;;;25.43;17.10;;;;;;;;;;766925;180;919670;-66
2023/01/29 08:28:27;;;;;;;42.67;25.33;;;;;;;;;;765251;181;643928;-66
2023/01/29 08:30:53;;;;;;;91.35;45.28;;;;;;;;;;769084;180;617847;-66
2023/01/29 08:33:19;;;;;;;15.47;9.07;;;;;;;;;;754814;182;919881;-66
2023/01/29 08:35:45;;;;;;;31.83;23.00;;;;;;;;;;757433;181;918773;-67
2023/01/29 08:38:11;;;;;;;55.60;29.03;;;;;;;;;;764170;181;631560;-66
2023/01/29 08:40:36;;;;;;;18.70;9.93;;;;;;;;;;766836;180;626941;-67
2023/01/29 08:43:02;;;;;;;25.37;13.83;;;;;;;;;;769923;180;629037;-68
2023/01/29 08:45:29;;;;;;;10.30;6.77;;;;;;;;;;766126;181;618597;-66
2023/01/29 08:47:54;;;;;;;12.73;9.87;;;;;;;;;;766766;177;623390;-66
2023/01/29 08:50:20;;;;;;;11.43;7.70;;;;;;;;;;754433;181;622542;-66
2023/01/29 08:52:46;;;;;;;24.23;17.03;;;;;;;;;;766106;181;620388;-66
2023/01/29 08:55:12;;;;;;;12.20;8.03;;;;;;;;;;762655;182;613983;-67
2023/01/29 08:57:37;;;;;;;16.57;9.27;;;;;;;;;;763531;180;625532;-66
2023/01/29 09:00:04;;;;;;;11.23;7.20;;;;;;;;;;768245;181;917922;-66
2023/01/29 09:02:29;;;;;;;17.13;10.47;;;;;;;;;;768556;180;917839;-66
2023/01/29 09:04:56;;;;;;;13.40;9.03;;;;;;;;;;756242;181;919892;-66
2023/01/29 09:07:21;;;;;;;15.03;10.70;;;;;;;;;;760527;180;918823;-66
2023/01/29 09:09:47;;;;;;;7.60;5.70;;;;;;;;;;758728;182;919675;-66
2023/01/29 09:12:13;;;;;;;11.98;6.75;;;;;;;;;;758901;181;907875;-66
2023/01/29 09:14:39;;;;;;;15.43;7.37;;;;;;;;;;763493;181;919069;-66
2023/01/29 09:17:04;;;;;;;10.60;7.07;;;;;;;;;;766419;180;930526;-67
2023/01/29 09:19:30;;;;;;;11.70;8.17;;;;;;;;;;774514;180;915809;-66
2023/01/29 09:21:57;;;;;;;20.87;11.33;;;;;;;;;;747111;182;918216;-66
2023/01/29 09:24:23;;;;;;;15.05;9.88;;;;;;;;;;754826;182;947673;-67
2023/01/29 09:26:49;;;;;;;25.40;14.50;;;;;;;;;;764606;181;918921;-66
2023/01/29 09:29:15;;;;;;;16.50;9.93;;;;;;;;;;759597;181;1021127;-66
2023/01/29 09:31:41;;;;;;;20.83;15.50;;;;;;;;;;759148;181;919709;-66
2023/01/29 09:34:07;;;;;;;47.03;30.80;;;;;;;;;;769142;180;919519;-67
2023/01/29 09:36:32;;;;;;;10.87;7.07;;;;;;;;;;778466;178;917158;-66
2023/01/29 09:38:58;;;;;;;7.83;5.37;;;;;;;;;;762015;181;993264;-66
2023/01/29 09:41:26;;;;;;;18.33;8.50;;;;;;;;;;763917;180;1023115;-66
2023/01/29 09:43:52;;;;;;;8.43;5.87;;;;;;;;;;768321;180;1020916;-67
2023/01/29 09:46:20;;;;;;;11.73;6.60;;;;;;;;;;763659;180;919280;-67
2023/01/29 09:48:46;;;;;;;10.97;6.83;;;;;;;;;;755115;181;922532;-67
2023/01/29 09:51:14;;;;;;;6.75;5.28;;;;;;;;;;772826;180;935555;-67
2023/01/29 09:53:43;;;;;;;9.67;5.90;;;;;;;;;;762520;180;916630;-67
2023/01/29 09:56:12;;;;;;;11.40;7.97;;;;;;;;;;759738;180;920156;-67
2023/01/29 09:58:38;;;;;;;11.63;6.30;;;;;;;;;;763233;179;920060;-67
2023/01/29 10:01:05;;;;;;;7.83;5.87;;;;;;;;;;771334;180;930738;-67
2023/01/29 10:03:34;;;;;;;12.37;9.77;;;;;;;;;;760517;181;919253;-67
2023/01/29 10:06:01;;;;;;;7.53;5.63;;;;;;;;;;768536;180;919499;-66
2023/01/29 10:08:30;;;;;;;8.40;6.57;;;;;;;;;;765399;180;917951;-68
2023/01/29 10:11:14;;;;;;;13.37;10.67;;;;;;;;;;768862;180;919617;-67
2023/01/29 10:13:40;;;;;;;8.20;6.43;;;;;;;;;;767545;181;919195;-68
2023/01/29 10:16:24;;;;;;;8.23;5.97;;;;;;;;;;758229;180;919286;-67
2023/01/29 10:19:00;;;;;;;7.97;5.87;;;;;;;;;;765933;181;918302;-68
2023/01/29 10:21:29;;;;;;;7.80;5.37;;;;;;;;;;767878;180;817881;-68
2023/01/29 10:24:07;;;;;;;8.73;5.83;;;;;;;;;;758803;181;919736;-69
2023/01/29 10:26:36;;;;;;;13.57;7.13;;;;;;;;;;765418;180;920541;-68
2023/01/29 10:28:59;;;;;;;8.70;5.30;;;;;;;;;;770802;180;816245;-68
2023/01/29 10:31:31;;;;;;;10.13;6.20;;;;;;;;;;764248;180;1120316;-68
2023/01/29 10:33:55;;;;;;;9.30;5.60;;;;;;;;;;772590;179;919797;-63
2023/01/29 10:36:20;;;;;;;9.03;6.00;;;;;;;;;;770572;180;962999;-62
2023/01/29 10:38:46;;;;;;;8.27;5.53;;;;;;;;;;775764;179;814328;-74
2023/01/29 10:41:27;;;;;;;8.52;6.65;;;;;;;;;;774784;177;919748;-62
2023/01/29 10:44:12;;;;;;;9.93;6.83;;;;;;;;;;772127;180;919605;-63
2023/01/29 10:46:43;;;;;;;25.00;13.67;;;;;;;;;;767907;180;925689;-75
2023/01/29 10:49:18;;;;;;;7.57;5.40;;;;;;;;;;769668;180;918290;-73
2023/01/29 10:51:45;;;;;;;9.30;6.30;;;;;;;;;;781215;177;917468;-73
2023/01/29 10:54:14;;;;;;;9.30;6.23;;;;;;;;;;790002;176;851566;-62
2023/01/29 10:56:41;;;;;;;8.23;5.63;;;;;;;;;;777432;176;917330;-73
2023/01/29 10:59:07;;;;;;;8.20;5.63;;;;;;;;;;773179;180;887011;-63
2023/01/29 11:01:33;;;;;;;10.10;6.13;;;;;;;;;;770871;180;918655;-63
2023/01/29 11:04:00;;;;;;;8.17;5.83;;;;;;;;;;762588;183;919217;-63
2023/01/29 11:06:28;;;;;;;7.78;5.68;;;;;;;;;;747968;182;1017889;-63
2023/01/29 11:08:55;;;;;;;9.57;6.60;;;;;;;;;;751697;182;920715;-74
2023/01/29 11:11:21;;;;;;;10.88;6.78;;;;;;;;;;768897;180;920863;-72
2023/01/29 11:13:50;;;;;;;14.63;7.07;;;;;;;;;;783053;176;919307;-72
2023/01/29 11:16:16;;;;;;;10.50;6.03;;;;;;;;;;776886;179;918629;-74
2023/01/29 11:18:47;;;;;;;9.33;6.47;;;;;;;;;;768347;180;919464;-71
2023/01/29 11:21:13;;;;;;;10.83;6.03;;;;;;;;;;777243;180;918120;-73
2023/01/29 11:23:39;;;;;;;13.50;7.80;;;;;;;;;;762471;180;922250;-62
2023/01/29 11:26:06;;;;;;;12.67;8.10;;;;;;;;;;761486;181;837844;-73
2023/01/29 11:28:38;;;;;;;9.70;7.07;;;;;;;;;;772665;180;919565;-72
2023/01/29 11:31:03;;;;;;;9.50;7.13;;;;;;;;;;772417;181;919338;-72
2023/01/29 11:33:29;;;;;;;15.70;8.43;;;;;;;;;;786568;176;815273;-62
2023/01/29 11:35:56;;;;;;;9.07;6.72;;;;;;;;;;781146;177;922060;-61
2023/01/29 11:38:22;;;;;;;10.93;7.17;;;;;;;;;;791694;176;918604;-62
2023/01/29 11:40:48;;;;;;;12.73;8.10;;;;;;;;;;781521;176;913047;-62
2023/01/29 11:43:19;;;;;;;10.20;7.50;;;;;;;;;;779103;178;1022884;-71
2023/01/29 11:45:45;;;;;;;10.30;7.43;;;;;;;;;;777994;180;918829;-62
2023/01/29 11:48:14;;;;;;;13.30;8.30;;;;;;;;;;773188;179;875923;-63
2023/01/29 11:50:40;;;;;;;11.57;7.73;;;;;;;;;;779766;176;993290;-71
2023/01/29 11:53:06;;;;;;;14.95;8.07;;;;;;;;;;773038;180;919154;-72
2023/01/29 11:55:31;;;;;;;11.10;7.10;;;;;;;;;;776708;179;914894;-71
2023/01/29 11:58:12;;;;;;;10.90;7.17;;;;;;;;;;781696;177;919272;-63
2023/01/29 12:00:38;;;;;;;13.83;6.80;;;;;;;;;;770643;177;890886;-62
2023/01/29 12:03:04;;;;;;;10.70;6.60;;;;;;;;;;786035;176;815254;-62
2023/01/29 12:05:30;;;;;;;10.30;6.30;;;;;;;;;;776506;177;919100;-62
2023/01/29 12:07:56;;;;;;;11.13;7.30;;;;;;;;;;772642;178;1117821;-62
2023/01/29 12:10:27;;;;;;;10.73;6.93;;;;;;;;;;769987;181;919048;-62
2023/01/29 12:12:53;;;;;;;12.53;7.70;;;;;;;;;;777312;180;815688;-62
2023/01/29 12:15:20;;;;;;;12.33;7.80;;;;;;;;;;783796;179;811220;-62
2023/01/29 12:17:46;;;;;;;8.23;6.37;;;;;;;;;;779135;178;816851;-62
2023/01/29 12:20:12;;;;;;;9.20;7.37;;;;;;;;;;772378;179;624421;-72
2023/01/29 12:22:39;;;;;;;13.40;7.57;;;;;;;;;;784893;176;646950;-72
2023/01/29 12:25:05;;;;;;;12.73;7.63;;;;;;;;;;775444;180;854716;-62
2023/01/29 12:27:31;;;;;;;11.97;8.83;;;;;;;;;;789216;176;627080;-71
2023/01/29 12:30:09;;;;;;;13.83;7.50;;;;;;;;;;781814;175;916962;-62
2023/01/29 12:32:45;;;;;;;11.07;8.03;;;;;;;;;;787433;177;922189;-72
2023/01/29 12:35:15;;;;;;;9.33;7.30;;;;;;;;;;788814;179;626189;-62
2023/01/29 12:37:59;;;;;;;17.87;8.73;;;;;;;;;;782513;176;915708;-71
2023/01/29 12:40:23;;;;;;;13.83;8.50;;;;;;;;;;765325;179;919433;-71
2023/01/29 12:42:49;;;;;;;10.80;8.47;;;;;;;;;;770886;179;913797;-61
2023/01/29 12:45:15;;;;;;;12.37;7.80;;;;;;;;;;769687;179;816208;-71
2023/01/29 12:47:41;;;;;;;12.07;9.20;;;;;;;;;;783365;176;918503;-62
2023/01/29 12:50:16;;;;;;;11.30;8.57;;;;;;;;;;782746;176;923705;-61
2023/01/29 12:52:43;;;;;;;12.07;8.40;;;;;;;;;;775713;179;900887;-62
2023/01/29 12:55:14;;;;;;;13.85;8.98;;;;;;;;;;776807;179;926119;-72
2023/01/29 12:57:41;;;;;;;13.80;8.93;;;;;;;;;;784593;179;816175;-72
2023/01/29 13:00:21;;;;;;;14.07;9.02;;;;;;;;;;776149;177;920759;-72
2023/01/29 13:02:54;;;;;;;9.93;8.17;;;;;;;;;;771229;180;919979;-62
2023/01/29 13:05:22;;;;;;;14.00;8.70;;;;;;;;;;769578;179;918719;-62
2023/01/29 13:07:49;;;;;;;12.80;8.33;;;;;;;;;;775604;179;919343;-63
2023/01/29 13:10:15;;;;;;;14.00;8.90;;;;;;;;;;774858;180;919142;-63
2023/01/29 13:12:40;;;;;;;9.80;7.37;;;;;;;;;;773517;180;907761;-62
2023/01/29 13:15:06;;;;;;;12.10;8.73;;;;;;;;;;784858;176;915065;-71
2023/01/29 13:17:32;;;;;;;10.32;7.97;;;;;;;;;;784971;179;813943;-71
2023/01/29 13:19:58;;;;;;;11.33;7.90;;;;;;;;;;778216;180;911602;-63
2023/01/29 13:22:24;;;;;;;13.37;8.20;;;;;;;;;;772173;180;816913;-62
2023/01/29 13:24:50;;;;;;;14.40;9.13;;;;;;;;;;771228;180;920744;-71
2023/01/29 13:27:20;;;;;;;11.20;8.40;;;;;;;;;;770862;180;894362;-73
2023/01/29 13:29:46;;;;;;;13.10;8.53;;;;;;;;;;769442;180;820083;-62
2023/01/29 13:32:12;;;;;;;10.70;7.63;;;;;;;;;;773058;178;1035533;-72
2023/01/29 13:34:43;;;;;;;11.17;8.47;;;;;;;;;;787662;176;818543;-62
2023/01/29 13:37:09;;;;;;;10.47;6.90;;;;;;;;;;774255;179;918966;-72
2023/01/29 13:39:36;;;;;;;13.85;8.00;;;;;;;;;;774713;175;917473;-71
2023/01/29 13:42:00;;;;;;;8.57;7.00;;;;;;;;;;772721;180;917640;-62
2023/01/29 13:44:26;;;;;;;11.57;6.97;;;;;;;;;;781900;176;917598;-62
2023/01/29 13:46:53;;;;;;;13.48;7.80;;;;;;;;;;778743;177;916792;-70
2023/01/29 13:49:36;;;;;;;11.93;8.20;;;;;;;;;;771787;179;892181;-71
2023/01/29 13:52:17;;;;;;;11.25;8.77;;;;;;;;;;780276;177;913832;-71
2023/01/29 13:54:43;;;;;;;13.05;8.68;;;;;;;;;;775126;176;918978;-62
2023/01/29 13:57:09;;;;;;;17.63;9.10;;;;;;;;;;801170;176;26512;-63
2023/01/29 13:59:40;;;;;;;13.13;7.60;;;;;;;;;;785343;176;919272;-71
2023/01/29 14:02:12;;;;;;;18.67;9.60;;;;;;;;;;779798;176;920341;-72
2023/01/29 14:04:38;;;;;;;12.50;9.00;;;;;;;;;;780362;176;918598;-62
2023/01/29 14:07:05;;;;;;;13.60;8.17;;;;;;;;;;782867;176;916368;-62
2023/01/29 14:09:32;;;;;;;11.33;8.70;;;;;;;;;;785574;176;921849;-63
2023/01/29 14:11:57;;;;;;;13.25;9.23;;;;;;;;;;780402;176;919740;-60
2023/01/29 14:14:29;;;;;;;14.30;9.53;;;;;;;;;;775459;182;1020787;-62
2023/01/29 14:16:56;;;;;;;13.20;7.93;;;;;;;;;;773998;182;913038;-72
2023/01/29 14:19:21;;;;;;;13.70;9.67;;;;;;;;;;762388;180;940851;-71
2023/01/29 14:21:47;;;;;;;14.47;9.43;;;;;;;;;;772807;180;919806;-71
2023/01/29 14:24:17;;;;;;;16.50;8.90;;;;;;;;;;769138;180;933098;-62
2023/01/29 14:26:44;;;;;;;14.07;9.13;;;;;;;;;;779670;177;863587;-63
2023/01/29 14:29:14;;;;;;;16.33;9.20;;;;;;;;;;767535;180;932174;-62
2023/01/29 14:31:40;;;;;;;14.60;10.73;;;;;;;;;;765353;180;1021092;-62
2023/01/29 14:34:12;;;;;;;11.40;8.82;;;;;;;;;;777921;179;817150;-72
2023/01/29 14:36:38;;;;;;;10.80;8.60;;;;;;;;;;776961;176;918292;-66
2023/01/29 14:39:04;;;;;;;15.90;10.27;;;;;;;;;;777422;176;816571;-71
2023/01/29 14:41:30;;;;;;;15.20;9.20;;;;;;;;;;773789;179;919231;-72
2023/01/29 14:44:01;;;;;;;13.77;9.90;;;;;;;;;;774670;177;919891;-62
2023/01/29 14:46:47;;;;;;;14.83;10.20;;;;;;;;;;773946;176;816736;-62
2023/01/29 14:49:13;;;;;;;18.87;11.40;;;;;;;;;;779347;176;814132;-71
2023/01/29 14:51:39;;;;;;;13.15;8.95;;;;;;;;;;772007;179;1017143;-73
2023/01/29 14:54:05;;;;;;;14.90;10.57;;;;;;;;;;768595;181;818638;-72
2023/01/29 14:56:32;;;;;;;18.60;11.37;;;;;;;;;;753605;183;916362;-61